Time;durP1;ratioP1;P1;durP2;ratioP2;P2;SDS_P1;SDS_P2;PMS_P1;PMS_P2;Temp;Humidity;BMP_temperature;BMP_pressure;BME280_temperature;BME280_humidity;BME280_pressure;Samples;Min_cycle;Max_cycle;Signal;HPM_P1;HPM_P2
2021/05/18 00:00:21;;;;;;;3.78;2.63;;;;;;;11.06;100.00;98992.16;5093003;28;20547;-72
2021/05/18 00:02:47;;;;;;;3.65;3.10;;;;;;;11.10;100.00;98997.31;5093205;28;20291;-73
2021/05/18 00:05:17;;;;;;;4.95;2.88;;;;;;;11.08;100.00;99002.84;5092908;28;20202;-73
2021/05/18 00:07:51;;;;;;;4.35;3.00;;;;;;;11.04;100.00;99010.25;5095225;28;20183;-71
2021/05/18 00:13:02;;;;;;;3.22;2.30;;;;;;;11.13;100.00;99027.63;5096978;28;20225;-72
2021/05/18 00:15:28;;;;;;;3.95;2.85;;;;;;;11.01;100.00;99032.03;5096972;28;20709;-72
2021/05/18 00:17:54;;;;;;;3.33;2.70;;;;;;;10.98;100.00;99024.13;5096803;28;20271;-72
2021/05/18 00:20:21;;;;;;;2.67;2.47;;;;;;;11.01;100.00;99025.75;5096862;28;20211;-73
2021/05/18 00:22:48;;;;;;;3.70;2.80;;;;;;;11.02;100.00;99030.19;5097066;28;20592;-71
2021/05/18 00:25:15;;;;;;;3.20;2.22;;;;;;;10.89;100.00;99024.78;5097120;28;20228;-74
2021/05/18 00:27:41;;;;;;;3.08;2.83;;;;;;;10.83;100.00;99028.75;5097073;28;20618;-72
2021/05/18 00:30:10;;;;;;;6.43;2.45;;;;;;;10.74;100.00;99031.19;5096551;28;20239;-73
2021/05/18 00:32:36;;;;;;;2.72;2.47;;;;;;;10.80;100.00;99028.09;5096825;28;20532;-72
2021/05/18 00:35:03;;;;;;;2.88;2.10;;;;;;;10.74;100.00;99028.50;5096770;28;20318;-72
2021/05/18 00:37:30;;;;;;;3.13;2.30;;;;;;;10.75;100.00;99023.03;5096764;28;20586;-72
2021/05/18 00:39:56;;;;;;;2.72;2.30;;;;;;;10.68;100.00;99029.81;5096122;28;20245;-73
2021/05/18 00:42:23;;;;;;;3.00;2.63;;;;;;;10.67;100.00;99033.44;5096054;28;20217;-72
2021/05/18 00:44:51;;;;;;;2.60;2.40;;;;;;;10.72;100.00;99028.63;5096230;28;20184;-72
2021/05/18 00:47:17;;;;;;;2.60;2.40;;;;;;;10.77;100.00;99026.47;5096503;28;20192;-73
2021/05/18 00:49:43;;;;;;;3.03;2.40;;;;;;;10.80;100.00;99020.03;5095837;28;20359;-72
2021/05/18 00:52:10;;;;;;;3.70;2.15;;;;;;;10.79;100.00;99021.84;5096648;28;20546;-72
2021/05/18 00:54:41;;;;;;;2.05;1.90;;;;;;;10.74;100.00;99020.44;5095747;28;20311;-73
2021/05/18 00:59:54;;;;;;;3.95;2.40;;;;;;;10.57;100.00;99030.50;5095078;28;20195;-73
2021/05/18 01:02:20;;;;;;;2.72;2.33;;;;;;;10.52;100.00;99032.66;5094694;28;20294;-74
2021/05/18 01:04:47;;;;;;;4.10;2.20;;;;;;;10.40;100.00;99038.84;5094885;28;20190;-74
2021/05/18 01:07:13;;;;;;;3.55;2.22;;;;;;;10.48;100.00;99027.59;5095203;28;20180;-73
2021/05/18 01:09:40;;;;;;;4.63;2.10;;;;;;;10.53;100.00;99033.50;5094621;28;20211;-74
2021/05/18 01:12:07;;;;;;;4.50;2.10;;;;;;;10.42;100.00;99036.91;5095125;28;20233;-73
2021/05/18 01:14:33;;;;;;;3.35;2.00;;;;;;;10.42;100.00;99028.84;5094491;28;20262;-74
2021/05/18 01:16:59;;;;;;;3.30;2.55;;;;;;;10.41;100.00;99033.38;5094532;28;20210;-73
2021/05/18 01:19:27;;;;;;;3.85;2.22;;;;;;;10.41;100.00;99041.44;5093960;28;20207;-74
2021/05/18 01:21:55;;;;;;;2.40;2.00;;;;;;;10.43;100.00;99039.50;5094863;28;20278;-72
2021/05/18 01:24:22;;;;;;;2.13;1.95;;;;;;;10.34;100.00;99037.44;5094828;28;20199;-72
2021/05/18 01:26:48;;;;;;;1.90;1.77;;;;;;;10.43;100.00;99049.44;5094627;28;20209;-74
2021/05/18 01:29:16;;;;;;;3.65;2.20;;;;;;;10.39;100.00;99043.38;5094797;28;20226;-73
2021/05/18 01:31:45;;;;;;;2.47;2.05;;;;;;;10.49;100.00;99048.13;5094121;28;20238;-72
2021/05/18 01:34:12;;;;;;;4.10;1.88;;;;;;;10.58;100.00;99050.22;5094592;28;20211;-73
2021/05/18 01:36:38;;;;;;;4.95;2.15;;;;;;;10.63;100.00;99042.72;5094494;28;20272;-70
2021/05/18 01:39:23;;;;;;;3.05;2.15;;;;;;;10.58;100.00;99045.72;5093868;28;20234;-74
2021/05/18 01:44:35;;;;;;;2.15;1.95;;;;;;;10.74;100.00;99050.94;5094300;28;20645;-74
2021/05/18 01:47:02;;;;;;;3.42;2.30;;;;;;;10.84;100.00;99051.16;5094310;28;20571;-73
2021/05/18 01:49:28;;;;;;;2.30;1.92;;;;;;;10.89;100.00;99054.41;5094455;28;20645;-72
2021/05/18 01:51:57;;;;;;;2.00;1.80;;;;;;;10.73;100.00;99051.03;5093761;28;20249;-72
2021/05/18 01:54:27;;;;;;;3.08;1.77;;;;;;;10.88;100.00;99052.69;5094244;28;20207;-72
2021/05/18 01:57:15;;;;;;;2.60;2.15;;;;;;;10.88;100.00;99055.38;5094139;28;20184;-74
2021/05/18 01:59:41;;;;;;;9.52;2.15;;;;;;;10.90;100.00;99061.53;5093624;28;20203;-72
2021/05/18 02:02:07;;;;;;;3.15;1.80;;;;;;;10.91;100.00;99054.31;5093702;28;20219;-74
2021/05/18 02:04:36;;;;;;;2.20;1.95;;;;;;;10.83;100.00;99052.13;5093875;28;20245;-71
2021/05/18 02:07:05;;;;;;;2.50;1.75;;;;;;;10.87;100.00;99055.47;5093955;28;20672;-71
2021/05/18 02:09:32;;;;;;;1.80;1.70;;;;;;;10.80;100.00;99053.19;5093474;28;20234;-72
2021/05/18 02:11:58;;;;;;;3.25;1.95;;;;;;;10.90;100.00;99052.56;5093570;28;20184;-74
2021/05/18 02:14:28;;;;;;;2.50;1.95;;;;;;;10.90;100.00;99052.56;5093697;28;20220;-74
2021/05/18 02:17:00;;;;;;;3.85;2.42;;;;;;;10.78;100.00;99057.81;5093374;28;20188;-74
2021/05/18 02:19:37;;;;;;;2.75;1.70;;;;;;;10.87;100.00;99058.16;5093827;28;20538;-73
2021/05/18 02:22:14;;;;;;;2.03;1.65;;;;;;;10.85;100.00;99060.97;5093696;28;20231;-74
2021/05/18 02:24:46;;;;;;;3.85;2.28;;;;;;;10.98;100.00;99061.00;5093481;28;20198;-74
2021/05/18 02:27:12;;;;;;;3.55;2.28;;;;;;;10.96;100.00;99061.09;5093158;28;20190;-72
2021/05/18 02:29:39;;;;;;;2.25;2.05;;;;;;;11.04;100.00;99061.44;5093421;28;20290;-74
2021/05/18 02:32:06;;;;;;;2.88;2.25;;;;;;;11.14;100.00;99064.34;5092038;28;20211;-72
2021/05/18 02:34:32;;;;;;;3.97;2.72;;;;;;;11.14;100.00;99064.34;5093171;28;20619;-74
2021/05/18 02:37:00;;;;;;;2.90;2.15;;;;;;;11.12;100.00;99062.75;5093333;28;20196;-71
2021/05/18 02:39:26;;;;;;;4.10;2.50;;;;;;;11.20;100.00;99060.38;5092941;28;20816;-74
2021/05/18 02:41:53;;;;;;;3.00;2.70;;;;;;;11.25;100.00;99066.31;5092829;28;20180;-73
2021/05/18 02:44:24;;;;;;;4.68;2.47;;;;;;;11.28;100.00;99058.00;5092768;28;20227;-74
2021/05/18 02:49:34;;;;;;;2.95;2.47;;;;;;;11.30;100.00;99072.25;5092989;28;20210;-72
2021/05/18 02:52:00;;;;;;;2.60;2.40;;;;;;;11.22;100.00;99070.09;5093058;28;20218;-73
2021/05/18 02:54:27;;;;;;;2.92;2.72;;;;;;;11.19;100.00;99077.50;5092488;28;20208;-73
2021/05/18 02:56:57;;;;;;;3.30;2.83;;;;;;;11.09;100.00;99079.13;5092960;28;20207;-72
2021/05/18 02:59:23;;;;;;;4.90;2.78;;;;;;;11.12;100.00;99074.38;5092952;28;20188;-71
2021/05/18 03:01:52;;;;;;;3.65;3.35;;;;;;;11.03;100.00;99073.19;5093062;28;20235;-73
2021/05/18 03:04:18;;;;;;;3.50;3.20;;;;;;;11.07;100.00;99077.38;5092908;28;20206;-73
2021/05/18 03:06:47;;;;;;;3.40;3.05;;;;;;;11.18;100.00;99075.78;5092711;28;20343;-71
2021/05/18 03:09:14;;;;;;;4.45;3.00;;;;;;;11.16;100.00;99072.34;5092509;28;20200;-73
2021/05/18 03:11:43;;;;;;;3.88;2.90;;;;;;;11.31;100.00;99079.38;5092725;28;20191;-72
2021/05/18 03:14:12;;;;;;;9.25;3.80;;;;;;;11.18;100.00;99071.25;5092534;28;20585;-73
2021/05/18 03:16:39;;;;;;;9.02;3.13;;;;;;;11.16;100.00;99067.81;5092643;28;20200;-74
2021/05/18 03:19:07;;;;;;;4.40;3.30;;;;;;;11.17;100.00;99068.66;5092655;28;20180;-73
2021/05/18 03:21:33;;;;;;;4.05;3.38;;;;;;;11.22;100.00;99078.19;5092526;28;20249;-72
2021/05/18 03:23:59;;;;;;;7.40;3.90;;;;;;;11.27;100.00;99072.47;5092570;28;20200;-73
2021/05/18 03:26:27;;;;;;;3.85;3.30;;;;;;;11.14;100.00;99071.59;5092381;28;20656;-72
2021/05/18 03:28:57;;;;;;;3.97;3.22;;;;;;;11.03;100.00;99075.88;5092523;28;20203;-72
2021/05/18 03:34:31;;;;;;;4.90;2.83;;;;;;;10.91;100.00;99081.25;5091945;28;20546;-72
2021/05/18 03:36:59;;;;;;;9.95;3.15;;;;;;;11.02;100.00;99082.22;5091898;28;20245;-73
2021/05/18 03:39:26;;;;;;;3.42;3.10;;;;;;;11.02;100.00;99084.91;5092010;28;20238;-72
2021/05/18 03:41:58;;;;;;;4.50;2.95;;;;;;;11.03;100.00;99085.78;5091916;28;20231;-72
2021/05/18 03:44:31;;;;;;;3.42;3.13;;;;;;;11.12;100.00;99093.22;5092270;28;20184;-72
2021/05/18 03:52:27;;;;;;;5.00;3.40;;;;;;;11.21;100.00;99095.28;5091936;28;20588;-73
2021/05/18 03:55:06;;;;;;;8.57;3.55;;;;;;;11.24;100.00;99099.63;5091722;28;20685;-74
2021/05/18 04:03:08;;;;;;;5.57;3.42;;;;;;;11.36;100.00;99106.84;5091895;28;20179;-72
2021/05/18 04:16:54;;;;;;;6.10;4.30;;;;;;;11.28;100.00;99117.28;5091681;28;20221;-74
2021/05/18 04:19:24;;;;;;;4.55;3.75;;;;;;;11.25;100.00;99128.28;5091697;28;20535;-74
2021/05/18 04:24:55;;;;;;;4.95;3.47;;;;;;;11.00;100.00;99124.56;5089675;28;20198;-73
2021/05/18 04:52:28;;;;;;;8.00;4.70;;;;;;;11.11;99.29;99128.38;5049311;28;20571;-73
2021/05/18 05:00:24;;;;;;;6.40;4.30;;;;;;;11.49;99.18;99125.75;5095060;28;20195;-74
2021/05/18 05:08:37;;;;;;;5.85;5.00;;;;;;;11.52;99.49;99130.06;5070453;28;20192;-71
2021/05/18 05:16:31;;;;;;;6.00;4.10;;;;;;;11.72;96.62;99134.94;5095079;28;20269;-72
2021/05/18 05:18:57;;;;;;;9.95;4.95;;;;;;;11.83;98.43;99140.44;5095141;28;20192;-73
2021/05/18 05:21:28;;;;;;;5.35;4.13;;;;;;;11.66;96.06;99138.91;5094980;28;20320;-72
2021/05/18 05:23:55;;;;;;;6.68;4.93;;;;;;;11.74;97.07;99140.22;5094920;28;20185;-71
2021/05/18 05:26:22;;;;;;;5.97;3.92;;;;;;;11.86;96.05;99148.28;5094986;28;20610;-72
2021/05/18 05:28:48;;;;;;;8.45;4.53;;;;;;;11.80;96.14;99145.16;5094212;28;20294;-72
2021/05/18 05:31:14;;;;;;;9.73;4.15;;;;;;;11.86;95.86;99145.59;5094813;28;20670;-73
2021/05/18 05:33:40;;;;;;;7.60;4.95;;;;;;;11.73;96.00;99141.19;5094634;28;20181;-72
2021/05/18 05:36:07;;;;;;;6.88;4.70;;;;;;;11.85;96.62;99143.88;5094538;28;20266;-73
2021/05/18 05:38:34;;;;;;;6.43;4.35;;;;;;;12.10;95.40;99144.88;5094667;28;20228;-74
2021/05/18 05:41:01;;;;;;;4.55;4.10;;;;;;;12.27;94.93;99147.19;5094763;28;20206;-73
2021/05/18 05:43:27;;;;;;;6.63;4.38;;;;;;;12.39;93.20;99152.69;5094633;28;20839;-73
2021/05/18 05:45:53;;;;;;;4.32;3.88;;;;;;;12.38;91.23;99151.81;5094386;28;20286;-73
2021/05/18 05:48:19;;;;;;;7.20;4.30;;;;;;;12.54;91.43;99153.41;5094162;28;20228;-71
2021/05/18 05:50:46;;;;;;;4.57;3.78;;;;;;;12.59;89.52;99151.22;5094007;28;20235;-73
2021/05/18 05:53:12;;;;;;;6.47;3.85;;;;;;;12.61;90.30;99151.97;5094136;28;20662;-73
2021/05/18 05:55:38;;;;;;;8.77;3.90;;;;;;;12.80;88.17;99154.16;5093247;28;20204;-73
2021/05/18 05:58:05;;;;;;;12.48;5.20;;;;;;;12.98;87.96;99158.22;5093848;28;20216;-71
2021/05/18 06:00:32;;;;;;;6.35;3.92;;;;;;;13.09;88.16;99171.78;5094014;28;20231;-73
2021/05/18 06:02:58;;;;;;;8.00;3.63;;;;;;;13.03;87.21;99169.53;5094035;28;20592;-73
2021/05/18 06:05:24;;;;;;;5.95;3.90;;;;;;;13.02;88.33;99172.34;5092796;28;20199;-72
2021/05/18 06:07:50;;;;;;;10.65;4.20;;;;;;;13.01;86.71;99176.06;5092618;28;20185;-72
2021/05/18 06:10:20;;;;;;;10.77;3.70;;;;;;;12.72;87.62;99176.38;5093409;28;20185;-73
2021/05/18 06:12:57;;;;;;;6.28;3.70;;;;;;;12.84;87.64;99188.09;5092863;28;20590;-73
2021/05/18 06:37:32;;;;;;;10.60;5.20;;;;;;;12.79;86.50;99185.75;5093229;28;20630;-72
2021/05/18 06:42:44;;;;;;;6.47;4.05;;;;;;;13.07;85.63;99187.25;5092494;28;20674;-73
2021/05/18 06:47:57;;;;;;;8.75;3.97;;;;;;;13.20;81.53;99192.59;5092597;28;20317;-74
2021/05/18 06:50:29;;;;;;;6.95;3.33;;;;;;;13.29;82.37;99191.06;5092318;28;20188;-73
2021/05/18 06:52:56;;;;;;;12.23;3.78;;;;;;;13.10;81.74;99191.56;5092755;28;20189;-73
2021/05/18 06:55:27;;;;;;;4.72;2.88;;;;;;;13.12;82.48;99203.13;5092431;28;20679;-74
2021/05/18 06:57:59;;;;;;;7.70;3.10;;;;;;;13.31;81.21;99206.19;5092455;28;20218;-73
2021/05/18 07:00:25;;;;;;;6.40;3.25;;;;;;;13.28;81.12;99209.13;5092529;28;20249;-74
2021/05/18 07:02:52;;;;;;;5.70;2.23;;;;;;;13.52;80.42;99209.13;5092399;28;20200;-75
2021/05/18 07:05:26;;;;;;;4.72;2.60;;;;;;;13.28;80.15;99213.69;5091613;28;20188;-73
2021/05/18 07:07:58;;;;;;;5.63;3.25;;;;;;;13.42;80.34;99207.22;5092340;28;20188;-73
2021/05/18 07:10:24;;;;;;;7.93;3.05;;;;;;;13.56;79.44;99217.84;5092413;28;20198;-74
2021/05/18 07:12:50;;;;;;;6.25;3.25;;;;;;;13.56;78.94;99224.13;5091939;28;20201;-73
2021/05/18 07:15:17;;;;;;;3.95;2.53;;;;;;;13.19;77.66;99217.06;5091815;28;20300;-74
2021/05/18 07:17:43;;;;;;;5.78;2.90;;;;;;;12.80;80.11;99217.19;5091557;28;20195;-75
2021/05/18 07:20:10;;;;;;;4.57;2.53;;;;;;;12.68;81.18;99213.53;5092284;28;20208;-73
2021/05/18 07:22:37;;;;;;;6.82;3.95;;;;;;;12.88;80.75;99216.63;5092301;28;20188;-73
2021/05/18 07:25:05;;;;;;;6.80;2.70;;;;;;;12.87;81.35;99214.91;5092428;28;20646;-74
2021/05/18 07:27:31;;;;;;;8.07;3.78;;;;;;;13.12;81.90;99217.50;5091825;28;20219;-75
2021/05/18 07:29:57;;;;;;;5.65;3.03;;;;;;;13.14;79.81;99226.38;5091794;28;20215;-74
2021/05/18 07:32:24;;;;;;;11.30;3.10;;;;;;;13.19;79.56;99225.16;5092004;28;20296;-75
2021/05/18 07:34:51;;;;;;;3.47;2.35;;;;;;;13.59;78.15;99230.28;5086296;28;20286;-73
2021/05/18 07:37:17;;;;;;;5.45;2.53;;;;;;;13.68;76.43;99234.97;5091999;28;20190;-74
2021/05/18 07:39:44;;;;;;;7.15;2.30;;;;;;;13.71;76.40;99221.22;5091341;28;20321;-73
2021/05/18 07:42:10;;;;;;;5.53;2.60;;;;;;;13.84;75.11;99222.00;5091805;28;20272;-74
2021/05/18 07:44:37;;;;;;;5.15;2.50;;;;;;;13.34;75.37;99221.31;5091315;28;20189;-74
2021/05/18 07:47:03;;;;;;;8.55;2.70;;;;;;;13.29;76.29;99224.38;5092328;28;20204;-72
2021/05/18 07:49:32;;;;;;;9.43;3.15;;;;;;;13.33;75.41;99225.88;5091764;28;20196;-74
2021/05/18 08:05:53;;;;;;;7.47;3.30;;;;;;;14.59;70.48;99215.22;5089542;28;20257;-73
2021/05/18 08:08:20;;;;;;;6.13;2.03;;;;;;;14.50;70.42;99211.38;5091821;28;20182;-73
2021/05/18 08:10:49;;;;;;;7.97;2.90;;;;;;;14.39;70.83;99209.53;5091617;28;20213;-74
2021/05/18 08:13:21;;;;;;;2.97;2.10;;;;;;;14.20;71.92;99222.81;5090951;28;20198;-74
2021/05/18 08:21:52;;;;;;;5.30;1.92;;;;;;;14.72;66.85;99207.84;5080763;28;20202;-73
2021/05/18 10:35:40;;;;;;;3.50;1.60;;;;;;;14.89;60.98;99165.78;5093387;28;20205;-72
2021/05/18 10:38:08;;;;;;;4.57;1.45;;;;;;;14.63;60.95;99159.81;5091618;28;20757;-75
2021/05/18 10:40:36;;;;;;;1.50;1.40;;;;;;;14.92;60.87;99146.53;5092852;28;20186;-73
2021/05/18 10:43:18;;;;;;;2.85;1.40;;;;;;;14.83;60.92;99154.56;5092610;28;20209;-73
2021/05/18 10:46:11;;;;;;;3.70;1.25;;;;;;;15.27;59.00;99142.72;5092908;28;20198;-72
2021/05/18 10:49:00;;;;;;;2.45;1.00;;;;;;;15.53;56.66;99134.19;5093008;28;20192;-72
2021/05/18 10:51:43;;;;;;;3.28;1.38;;;;;;;15.94;55.43;99141.50;5091798;28;20247;-73
2021/05/18 10:54:14;;;;;;;3.55;1.17;;;;;;;15.67;54.67;99139.31;5092658;28;20233;-75
2021/05/18 10:57:08;;;;;;;3.05;1.42;;;;;;;16.16;54.38;99132.31;5092894;28;20222;-73
2021/05/18 10:59:36;;;;;;;4.40;1.50;;;;;;;15.46;56.14;99138.44;5071914;28;20231;-74
2021/05/18 11:02:07;;;;;;;5.18;1.55;;;;;;;15.01;58.44;99139.47;5072255;28;20190;-74
2021/05/18 11:04:35;;;;;;;1.40;1.30;;;;;;;15.62;56.36;99131.56;5071522;28;20234;-73
2021/05/18 11:07:04;;;;;;;2.67;1.42;;;;;;;16.37;54.58;99128.66;5071992;28;20193;-72
2021/05/18 11:09:31;;;;;;;1.50;1.40;;;;;;;17.31;51.42;99115.56;5072334;28;20695;-72
2021/05/18 11:12:03;;;;;;;4.18;1.40;;;;;;;17.91;48.86;99123.53;5076711;28;20194;-74
2021/05/18 11:14:48;;;;;;;3.35;1.67;;;;;;;17.49;50.63;99129.28;5092227;28;20195;-74
2021/05/18 11:17:21;;;;;;;3.45;1.20;;;;;;;17.05;51.83;99124.28;5092206;28;20207;-74
2021/05/18 11:20:05;;;;;;;2.17;1.25;;;;;;;16.34;54.14;99123.53;5091683;28;20184;-72
2021/05/18 11:25:33;;;;;;;3.85;2.13;;;;;;;16.04;55.21;99117.97;5091852;28;20200;-73
2021/05/18 11:28:11;;;;;;;1.95;0.80;;;;;;;16.29;54.62;99117.66;5091306;28;20245;-74
2021/05/18 11:30:38;;;;;;;2.78;1.60;;;;;;;16.14;55.03;99114.44;5091759;28;20262;-74
2021/05/18 11:33:05;;;;;;;3.08;1.13;;;;;;;16.16;54.06;99112.44;5091647;28;20218;-75
2021/05/18 11:35:32;;;;;;;3.05;1.50;;;;;;;16.53;53.54;99109.13;5092222;28;20278;-71
2021/05/18 11:38:06;;;;;;;2.75;1.20;;;;;;;16.65;52.73;99113.47;5092206;28;20204;-72
2021/05/18 11:40:42;;;;;;;1.65;1.20;;;;;;;16.15;53.30;99106.16;5092370;28;20183;-73
2021/05/18 11:43:22;;;;;;;1.92;1.30;;;;;;;16.20;53.03;99106.59;5091989;28;20275;-72
2021/05/18 11:45:51;;;;;;;2.67;1.42;;;;;;;16.18;53.08;99108.59;5092177;28;20261;-72
2021/05/18 11:48:19;;;;;;;3.58;2.10;;;;;;;16.70;53.07;99097.59;5092164;28;20207;-71
2021/05/18 11:50:59;;;;;;;2.20;1.20;;;;;;;16.54;53.28;99097.28;5092371;28;20682;-73
2021/05/18 11:53:34;;;;;;;1.75;1.35;;;;;;;16.66;52.58;99099.75;5092367;28;20278;-71
2021/05/18 11:56:00;;;;;;;3.08;1.08;;;;;;;16.75;50.55;99105.31;5091787;28;20226;-73
2021/05/18 11:58:27;;;;;;;2.47;1.00;;;;;;;16.20;50.59;99101.16;5092118;28;20653;-73
2021/05/18 12:01:06;;;;;;;3.90;1.20;;;;;;;16.40;50.93;99109.41;5092307;28;20676;-71
2021/05/18 12:03:34;;;;;;;1.15;1.05;;;;;;;15.88;50.91;99109.47;5094319;28;20573;-72
2021/05/18 12:06:01;;;;;;;3.17;1.30;;;;;;;15.79;52.24;99104.84;5095944;28;20223;-73
2021/05/18 12:08:29;;;;;;;3.45;1.40;;;;;;;15.33;55.28;99109.66;5096757;28;20269;-72
2021/05/18 12:11:09;;;;;;;3.30;1.75;;;;;;;15.38;56.32;99104.69;5096498;28;20665;-72
2021/05/18 12:13:36;;;;;;;2.13;1.40;;;;;;;15.50;56.09;99110.06;5095830;28;20229;-72
2021/05/18 12:16:03;;;;;;;3.38;1.52;;;;;;;15.42;55.23;99098.03;5055653;28;20257;-72
2021/05/18 12:18:33;;;;;;;2.40;1.25;;;;;;;15.80;53.92;99110.13;5045074;28;20189;-72
2021/05/18 12:21:07;;;;;;;3.45;1.25;;;;;;;16.28;51.55;99103.22;5045981;28;20201;-73
2021/05/18 12:23:33;;;;;;;2.55;1.17;;;;;;;16.94;49.87;99099.09;5045545;28;20251;-73
2021/05/18 12:26:17;;;;;;;3.47;1.20;;;;;;;17.33;48.43;99099.94;5045881;28;20204;-74
2021/05/18 12:28:56;;;;;;;2.75;1.40;;;;;;;16.52;50.90;99108.28;5046893;28;20228;-73
2021/05/18 12:31:28;;;;;;;3.45;1.73;;;;;;;16.04;54.40;99117.97;5045988;28;20190;-73
2021/05/18 12:33:55;;;;;;;3.83;1.90;;;;;;;15.50;57.51;99127.19;5043304;28;20221;-75
2021/05/18 12:36:22;;;;;;;1.65;1.20;;;;;;;15.57;58.82;99122.09;5044302;28;20210;-73
2021/05/18 12:39:08;;;;;;;2.85;1.77;;;;;;;15.35;60.09;99118.53;5048163;28;20229;-74
2021/05/18 12:41:53;;;;;;;4.18;1.50;;;;;;;15.50;60.17;99121.75;5054453;28;20207;-72
2021/05/18 12:44:20;;;;;;;2.53;1.08;;;;;;;15.78;60.00;99124.81;5054784;28;20207;-73
2021/05/18 12:46:55;;;;;;;3.22;1.48;;;;;;;16.84;55.90;99118.94;5054704;28;20624;-73
2021/05/18 12:49:33;;;;;;;4.05;1.75;;;;;;;16.54;55.16;99113.59;5055083;28;20232;-73
2021/05/18 12:52:01;;;;;;;2.78;1.27;;;;;;;16.82;51.60;99122.81;5054870;28;20194;-73
2021/05/18 12:54:40;;;;;;;5.05;1.17;;;;;;;16.12;53.19;99119.13;5054122;28;20224;-72
2021/05/18 12:57:07;;;;;;;2.08;1.35;;;;;;;16.21;54.06;99116.50;5055019;28;20996;-73
2021/05/18 12:59:34;;;;;;;1.73;1.45;;;;;;;16.74;53.12;99111.78;5053164;28;20197;-75
2021/05/18 13:02:00;;;;;;;1.77;1.20;;;;;;;17.11;50.97;99116.56;5054540;28;20190;-73
2021/05/18 13:04:26;;;;;;;1.42;1.10;;;;;;;17.08;51.24;99125.88;5054185;28;20645;-72
2021/05/18 13:06:56;;;;;;;3.75;1.58;;;;;;;16.46;52.14;99107.00;5054484;28;20267;-74
2021/05/18 13:09:25;;;;;;;1.90;1.45;;;;;;;16.97;50.31;99131.44;5055000;28;21060;-72
2021/05/18 13:12:15;;;;;;;2.00;1.60;;;;;;;16.29;51.63;99125.81;5054529;28;20197;-72
2021/05/18 13:14:57;;;;;;;6.05;2.10;;;;;;;16.76;50.21;99126.09;5053779;28;20609;-73
2021/05/18 13:17:24;;;;;;;2.15;1.00;;;;;;;16.62;50.39;99113.72;5054232;28;20200;-73
2021/05/18 13:20:00;;;;;;;3.28;1.10;;;;;;;16.13;50.74;99126.31;5054701;28;20674;-72
2021/05/18 13:22:30;;;;;;;1.55;1.20;;;;;;;15.90;52.12;99114.78;5054529;28;20212;-72
2021/05/18 13:27:52;;;;;;;1.30;1.20;;;;;;;17.74;47.74;99114.22;5054271;28;20202;-73
2021/05/18 13:30:20;;;;;;;2.55;1.30;;;;;;;17.19;49.48;99116.72;5054012;28;20541;-73
2021/05/18 13:32:47;;;;;;;1.15;1.05;;;;;;;16.80;50.99;99114.81;5053629;28;20200;-73
2021/05/18 13:35:14;;;;;;;4.20;1.00;;;;;;;17.05;50.69;99116.13;5053574;28;20235;-74
2021/05/18 13:37:41;;;;;;;2.72;1.30;;;;;;;17.53;50.85;99117.13;5053313;28;20192;-73
2021/05/18 13:40:08;;;;;;;2.30;1.35;;;;;;;18.38;48.32;99111.72;5053726;28;20186;-72
2021/05/18 13:42:35;;;;;;;1.67;1.27;;;;;;;18.65;47.22;99102.69;5053958;28;20604;-73
2021/05/18 13:45:01;;;;;;;2.22;1.55;;;;;;;19.46;43.23;99108.13;5053195;28;20199;-74
2021/05/18 13:47:27;;;;;;;1.73;0.95;;;;;;;18.78;43.84;99103.19;5053804;28;20222;-74
2021/05/18 13:49:53;;;;;;;1.30;1.00;;;;;;;19.21;43.36;99093.41;5053850;28;20666;-74
2021/05/18 13:52:19;;;;;;;1.40;0.90;;;;;;;20.01;41.38;99090.59;5053709;28;20608;-73
2021/05/18 13:54:46;;;;;;;1.25;0.93;;;;;;;19.07;43.03;99096.69;5053540;28;20291;-73
2021/05/18 13:57:12;;;;;;;1.38;1.20;;;;;;;19.95;41.12;99092.13;5053469;28;20302;-74
2021/05/18 13:59:39;;;;;;;2.90;1.45;;;;;;;20.01;41.15;99098.78;5053171;28;20272;-73
2021/05/18 14:02:05;;;;;;;2.10;1.10;;;;;;;19.29;42.46;99088.03;5053507;28;20203;-73
2021/05/18 14:04:31;;;;;;;2.10;1.40;;;;;;;18.38;44.42;99090.78;5053600;28;20580;-73
2021/05/18 14:07:13;;;;;;;1.48;1.00;;;;;;;18.29;44.49;99083.50;5052661;28;20196;-72
2021/05/18 14:09:39;;;;;;;1.70;1.25;;;;;;;19.77;41.89;99088.59;5052262;28;20198;-76
2021/05/18 14:12:07;;;;;;;1.55;1.20;;;;;;;18.38;44.77;99087.19;5053145;28;20625;-74
2021/05/18 14:14:33;;;;;;;3.58;1.63;;;;;;;17.93;46.17;99075.19;5053178;28;20229;-73
2021/05/18 14:16:59;;;;;;;1.13;1.02;;;;;;;17.22;47.86;99091.94;5053028;28;20209;-74
2021/05/18 14:19:26;;;;;;;3.15;1.55;;;;;;;16.22;51.70;99096.47;5053475;28;20216;-74
2021/05/18 14:21:52;;;;;;;3.85;1.15;;;;;;;16.08;53.72;99106.81;5053145;28;20185;-72
2021/05/18 14:24:21;;;;;;;2.47;1.23;;;;;;;15.98;55.63;99113.06;5052537;28;20208;-74
2021/05/18 14:26:47;;;;;;;1.70;1.35;;;;;;;17.76;51.29;99112.19;5052673;28;20177;-72
2021/05/18 14:29:14;;;;;;;1.77;0.85;;;;;;;18.07;50.18;99104.69;5052740;28;20240;-73
2021/05/18 14:31:41;;;;;;;2.28;1.08;;;;;;;17.41;53.25;99119.16;5052739;28;20197;-74
2021/05/18 14:34:08;;;;;;;2.83;1.27;;;;;;;17.39;54.55;99112.09;5052174;28;20190;-72
2021/05/18 14:36:34;;;;;;;1.95;1.17;;;;;;;16.80;56.33;99130.25;5050033;28;20225;-74
2021/05/18 14:39:04;;;;;;;0.80;0.70;;;;;;;17.01;55.02;99122.00;5032961;28;20321;-72
2021/05/18 14:44:18;;;;;;;1.40;0.80;;;;;;;20.71;44.30;99119.66;5032667;28;20206;-73
2021/05/18 14:46:51;;;;;;;3.83;0.93;;;;;;;21.10;44.23;99127.28;5032268;28;20195;-73
2021/05/18 14:54:59;;;;;;;0.97;0.80;;;;;;;23.79;37.58;99122.00;5050306;28;20435;-75
2021/05/18 14:57:25;;;;;;;1.70;0.70;;;;;;;24.22;36.69;99122.25;5051890;28;20480;-72
2021/05/18 14:59:52;;;;;;;2.23;1.00;;;;;;;25.74;34.66;99127.06;5051105;28;20448;-73
2021/05/18 15:02:18;;;;;;;5.57;0.90;;;;;;;24.33;34.59;99119.03;5051856;28;20508;-73
2021/05/18 15:04:44;;;;;;;1.13;0.93;;;;;;;25.28;34.38;99119.19;5052216;28;20774;-73
2021/05/18 15:07:11;;;;;;;1.70;0.90;;;;;;;27.36;31.48;99117.63;5051284;28;20575;-72
2021/05/18 15:09:39;;;;;;;1.10;0.70;;;;;;;28.48;30.25;99114.03;5051391;28;20435;-73
2021/05/18 15:12:06;;;;;;;3.47;1.00;;;;;;;29.32;28.81;99111.34;5051255;28;20479;-73
2021/05/18 15:14:32;;;;;;;1.53;1.07;;;;;;;24.53;35.39;99111.09;5051322;28;20573;-74
2021/05/18 15:16:59;;;;;;;1.93;0.90;;;;;;;22.65;39.19;99115.31;5050595;28;20500;-73
2021/05/18 15:19:27;;;;;;;1.97;1.13;;;;;;;19.44;46.64;99126.53;5051271;28;20711;-74
2021/05/18 15:21:53;;;;;;;1.20;0.90;;;;;;;17.78;48.53;99142.00;5050771;28;20448;-75
2021/05/18 15:24:20;;;;;;;1.75;1.13;;;;;;;16.09;54.62;99144.72;5051429;28;20904;-73
2021/05/18 15:26:46;;;;;;;2.50;1.67;;;;;;;15.58;61.39;99159.06;5051108;28;20209;-74
2021/05/18 15:29:13;;;;;;;2.33;1.90;;;;;;;13.74;77.10;99161.47;5050640;28;20193;-74
2021/05/18 15:31:39;;;;;;;5.15;2.30;;;;;;;12.06;97.61;99183.84;5038710;28;20273;-72
2021/05/18 15:34:06;;;;;;;2.60;2.20;;;;;;;11.29;100.00;99180.16;5031681;28;20577;-71
2021/05/18 15:36:33;;;;;;;5.10;2.38;;;;;;;11.41;100.00;99180.19;5049628;28;20240;-72
2021/05/18 15:38:59;;;;;;;2.25;2.05;;;;;;;11.22;100.00;99175.19;5050401;28;20236;-72
2021/05/18 15:41:25;;;;;;;2.50;2.03;;;;;;;11.05;100.00;99183.53;5051151;28;20292;-72
2021/05/18 15:43:51;;;;;;;3.50;2.95;;;;;;;11.57;100.00;99184.53;5050625;28;20205;-72
2021/05/18 15:46:17;;;;;;;2.30;2.10;;;;;;;11.81;100.00;99184.66;5051043;28;20205;-72
2021/05/18 15:48:44;;;;;;;3.75;2.38;;;;;;;11.71;100.00;99184.41;5051031;28;20204;-71
2021/05/18 15:51:11;;;;;;;3.88;3.40;;;;;;;11.56;100.00;99190.91;5050540;28;20749;-72
2021/05/18 15:53:37;;;;;;;4.03;2.20;;;;;;;11.38;100.00;99195.72;5050943;28;20288;-73
2021/05/18 15:56:04;;;;;;;2.53;1.67;;;;;;;11.43;100.00;99185.47;5050823;28;20678;-72
2021/05/18 15:58:31;;;;;;;2.83;2.30;;;;;;;11.58;100.00;99194.34;5050066;28;20187;-72
2021/05/18 16:00:57;;;;;;;3.53;2.70;;;;;;;12.30;100.00;99192.00;5050525;28;20642;-73
2021/05/18 16:03:24;;;;;;;3.88;2.70;;;;;;;13.20;100.00;99192.59;5051051;28;20542;-71
2021/05/18 16:05:50;;;;;;;4.93;2.25;;;;;;;13.47;94.59;99199.63;5050913;28;20230;-73
2021/05/18 16:11:04;;;;;;;1.98;1.75;;;;;;;15.16;81.91;99197.84;5050602;28;20202;-71
2021/05/18 16:13:30;;;;;;;2.85;1.70;;;;;;;16.50;79.43;99189.06;5050484;28;20185;-72